メインページ
METAR-TAF:

METAR-TAF

空港 :

ジブラルタル, ジブラルタル

ジブラルタル国際空港

緯度: 36-09N, 経度: 005-21W, 海抜: 5m

現時点の気象観測

当レポートは55分前の08:50(UTC)に作成
南/南西の風 9kt
気温 14°C
湿度 58%
気圧 1018 hPa
視程10km以上
高度2500ftの雲はほとんどない

METAR: LXGB 250850Z 20009KT 9999 FEW025 14/06 Q1018 NOSIG

時間: 10:45 (09:45 UTC)

予報

当レポートは2時間14分前の07:31(UTC)に作成
予報は25日の 09時(UTC)から 25日の 18時(UTC)まで有効
南西の風 10kt
視程10km以上
高度3500ftの雲は散在している
確率 30% :
25日の 09時(UTC)から 25日の 15時(UTC)まで一時的に
西/南西の風 15kt、最大25ktの突風を伴う

TAF: LXGB 250731Z 2509/2518 22010KT 9999 SCT035 PROB30 TEMPO 2509/2515 24015G25KT 520002

4,000以上の空港の気象観測と天気予報(METAR報とTAF報)

利用可能な観測所は地図上に黄色い丸と赤い丸で示す。

丸の上にカーソルを重ねると観測所名を参照できる。

次にクリックすると気象観測と天気予報を参照できる。

マップの切り替え:黒色「×」印の緑ボタンをクリックして拡大、「-」印の緑ボタンをクリックして縮小、緑色の三角印をクリックして隣りの地図に切り替え


METAR-TAF: